createdAt,value
2018-06-18T02:28:59.945Z,96272.75
2018-06-18T02:51:50.745Z,96276.72
2018-06-18T03:18:03.161Z,96312.08
2018-06-18T03:55:40.198Z,96322.36
2018-06-18T04:01:29.599Z,96242.69
2018-06-18T04:07:50.294Z,96335.00
2018-06-18T04:10:54.433Z,96334.88
2018-06-18T04:14:16.076Z,96340.94
2018-06-18T04:16:59.359Z,96348.95
2018-06-18T04:19:47.669Z,96345.91
2018-06-18T04:25:55.358Z,96348.28
2018-06-18T04:28:52.880Z,96254.73
2018-06-18T04:33:20.463Z,96354.91
2018-06-18T04:39:12.509Z,96368.88
2018-06-18T04:42:02.100Z,96367.38
2018-06-18T04:44:48.344Z,96376.39
2018-06-18T04:47:33.672Z,96370.80
2018-06-18T04:53:03.485Z,96376.59
2018-06-18T04:55:38.392Z,96379.42
2018-06-18T04:58:27.816Z,96386.33
2018-06-18T05:03:58.521Z,96388.71
2018-06-18T05:06:36.019Z,96397.08
2018-06-18T05:11:20.455Z,96390.30
2018-06-18T05:13:52.201Z,96396.48
2018-06-18T05:16:37.218Z,96402.41
2018-06-18T05:19:07.710Z,96398.20
2018-06-18T05:21:36.991Z,96400.22
2018-06-18T05:24:06.955Z,96404.16
2018-06-18T05:26:38.653Z,96399.38
2018-06-18T05:29:07.866Z,96401.37
2018-06-18T05:31:37.018Z,96410.02
2018-06-18T05:34:06.579Z,96408.22
2018-06-18T05:36:35.674Z,96408.62
2018-06-18T05:39:07.161Z,96408.45
2018-06-18T05:41:36.427Z,96409.31
2018-06-18T05:44:05.602Z,96409.94
2018-06-18T05:46:34.585Z,96407.52
2018-06-18T05:49:03.764Z,96409.47
2018-06-18T05:51:34.149Z,96402.33
2018-06-18T05:54:03.325Z,96410.44
2018-06-18T05:56:33.717Z,96412.84
2018-06-18T05:59:02.875Z,96415.48
2018-06-18T06:01:33.741Z,96412.36
2018-06-18T06:04:03.519Z,96413.59
2018-06-18T06:06:37.482Z,96417.80
2018-06-18T06:09:12.652Z,96418.11
2018-06-18T06:11:43.022Z,96420.88
2018-06-18T06:14:12.076Z,96421.83
2018-06-18T06:16:41.080Z,96417.23
2018-06-18T06:19:11.191Z,96423.69
2018-06-18T06:21:40.356Z,96424.31
2018-06-18T06:24:12.033Z,96422.25
2018-06-18T06:26:48.940Z,96433.48
2018-06-18T06:29:18.188Z,96437.78
2018-06-18T06:31:49.599Z,96430.33
2018-06-18T06:34:18.511Z,96435.39
2018-06-18T06:36:47.534Z,96431.61
2018-06-18T06:39:16.625Z,96437.86
2018-06-18T06:41:49.630Z,96435.19
2018-06-18T06:44:18.553Z,96435.40
2018-06-18T06:46:47.506Z,96436.70
2018-06-18T06:49:16.512Z,96440.84
2018-06-18T06:51:45.488Z,96450.84
2018-06-18T06:54:16.583Z,96446.06
2018-06-18T06:56:45.520Z,96447.46
2018-06-18T06:59:14.527Z,96450.68
2018-06-18T07:01:43.890Z,96453.84
2018-06-18T07:04:12.969Z,96459.03
2018-06-18T07:06:42.128Z,96453.60
2018-06-18T07:09:12.573Z,96449.50
2018-06-18T07:11:41.466Z,96456.90
2018-06-18T07:14:10.483Z,96449.63
2018-06-18T07:16:39.487Z,96446.83
2018-06-18T07:19:08.580Z,96444.16
2018-06-18T07:21:37.583Z,96448.41
2018-06-18T07:24:06.522Z,96448.48
2018-06-18T07:26:35.423Z,96440.62
2018-06-18T07:29:04.477Z,96443.66
2018-06-18T07:31:33.596Z,96451.82
2018-06-18T07:34:02.509Z,96457.60
2018-06-18T07:36:31.459Z,96464.82
2018-06-18T07:39:00.571Z,96458.00
2018-06-18T07:41:29.498Z,96457.66
2018-06-18T07:43:58.428Z,96454.87
2018-06-18T07:46:27.416Z,96461.06
2018-06-18T07:48:56.323Z,96457.03
2018-06-18T07:51:25.408Z,96464.19
2018-06-18T07:53:54.360Z,96464.45
2018-06-18T07:56:23.383Z,96465.58
2018-06-18T07:59:03.706Z,96471.58
2018-06-18T08:01:32.679Z,96472.59
2018-06-18T08:04:03.236Z,96477.95
2018-06-18T08:06:32.096Z,96473.27
2018-06-18T08:09:02.619Z,96470.91
2018-06-18T08:11:31.668Z,96470.91
2018-06-18T08:14:00.537Z,96479.79
2018-06-18T08:16:29.488Z,96477.18
2018-06-18T08:18:59.409Z,96472.55
2018-06-18T08:21:30.585Z,96481.47
2018-06-18T08:23:59.565Z,96484.78
2018-06-18T08:26:29.125Z,96480.41
2018-06-18T08:28:58.147Z,96483.59
2018-06-18T08:31:27.440Z,96479.20
2018-06-18T08:33:56.359Z,96483.89
2018-06-18T08:36:25.642Z,96487.30
2018-06-18T08:38:54.698Z,96483.77
2018-06-18T08:41:23.770Z,96474.71
2018-06-18T08:43:52.705Z,96484.17
2018-06-18T08:46:22.337Z,96486.09
2018-06-18T08:49:09.570Z,96473.86
2018-06-18T08:51:43.915Z,96493.56
2018-06-18T08:54:17.998Z,96495.89
2018-06-18T08:56:52.136Z,96497.77
2018-06-18T08:59:26.197Z,96497.72
2018-06-18T09:01:55.289Z,96492.80
2018-06-18T09:04:29.427Z,96486.45
2018-06-18T09:09:05.137Z,96489.07
2018-06-18T09:11:34.697Z,96489.17
2018-06-18T09:14:03.662Z,96489.52
2018-06-18T09:16:32.624Z,96485.48
2018-06-18T09:19:01.692Z,96479.50
2018-06-18T09:21:30.707Z,96465.67
2018-06-18T09:24:01.155Z,96482.73
2018-06-18T09:26:51.608Z,96486.10
2018-06-18T09:29:24.692Z,96492.41
2018-06-18T09:31:56.439Z,96495.52
2018-06-18T09:34:25.512Z,96493.41
2018-06-18T09:36:54.480Z,96492.49
2018-06-18T09:39:23.447Z,96494.33
2018-06-18T09:41:52.451Z,96496.45
2018-06-18T09:44:21.302Z,96498.38
2018-06-18T09:46:50.720Z,96500.81
2018-06-18T09:49:24.917Z,96506.99
2018-06-18T09:52:00.276Z,96508.30
2018-06-18T09:54:34.236Z,96476.81
2018-06-18T09:57:08.205Z,96514.20
2018-06-18T09:59:42.114Z,96508.60
2018-06-18T10:02:11.727Z,96509.50
2018-06-18T10:04:41.811Z,96514.72
2018-06-18T10:07:10.910Z,96510.50
2018-06-18T10:09:39.844Z,96513.23
2018-06-18T10:12:11.863Z,96511.36
2018-06-18T10:14:42.560Z,96508.27
2018-06-18T10:17:14.800Z,96506.70
2018-06-18T10:19:44.031Z,96512.82
2018-06-18T10:22:14.240Z,96511.33
2018-06-18T10:24:43.229Z,96507.30
2018-06-18T10:27:12.270Z,96508.30
2018-06-18T10:29:41.102Z,96510.36
2018-06-18T10:32:14.984Z,96504.44
2018-06-18T10:38:15.654Z,96501.24
2018-06-18T10:40:57.832Z,96495.52
2018-06-18T10:43:36.572Z,96492.74
2018-06-18T10:46:12.248Z,96505.09
2018-06-18T10:48:40.946Z,96505.03
2018-06-18T10:51:09.739Z,96498.75
2018-06-18T10:53:41.387Z,96502.20
2018-06-18T10:56:10.319Z,96508.02
2018-06-18T10:58:40.721Z,96505.58
2018-06-18T11:01:11.836Z,96498.58
2018-06-18T11:03:47.442Z,96497.56
2018-06-18T11:06:26.214Z,96495.28
2018-06-18T11:09:04.675Z,96492.11
2018-06-18T11:11:35.214Z,96490.42
2018-06-18T11:17:24.550Z,96492.36
2018-06-18T11:29:38.257Z,96490.55
2018-06-18T11:34:57.623Z,96489.73
2018-06-18T11:38:28.926Z,96496.83
2018-06-18T11:40:59.833Z,96494.84
2018-06-18T11:43:52.753Z,96419.77
2018-06-18T11:46:23.208Z,96494.78
2018-06-18T11:48:59.209Z,96494.16
2018-06-18T11:51:31.930Z,96494.65
2018-06-18T11:56:51.618Z,96490.43
2018-06-18T11:59:26.041Z,96485.88
2018-06-18T12:02:00.292Z,96489.05
2018-06-18T12:04:36.823Z,96481.49
2018-06-18T12:07:16.080Z,96487.11
2018-06-18T12:09:50.060Z,96485.55
2018-06-18T12:12:29.938Z,96488.57
2018-06-18T12:14:59.732Z,96484.44
2018-06-18T12:17:41.763Z,96481.77
2018-06-18T12:20:25.317Z,96482.44
2018-06-18T12:22:54.478Z,96474.98
2018-06-18T12:25:26.025Z,96477.23
2018-06-18T12:27:55.395Z,96479.45
2018-06-18T12:30:26.280Z,96393.95
2018-06-18T12:33:01.855Z,96476.53
2018-06-18T12:35:33.354Z,96476.43
2018-06-18T12:38:02.492Z,96468.17
2018-06-18T12:41:05.141Z,96467.28
2018-06-18T12:43:39.304Z,96464.23
2018-06-18T12:46:28.099Z,96459.23
2018-06-18T12:49:06.428Z,96461.72
2018-06-18T12:51:50.650Z,96455.39
2018-06-18T12:54:48.417Z,96460.37
2018-06-18T12:57:29.560Z,96459.36
2018-06-18T12:59:58.539Z,96460.58
2018-06-18T13:02:35.788Z,96456.24
2018-06-18T13:05:04.934Z,96459.59
2018-06-18T13:07:35.999Z,96455.06
2018-06-18T13:10:05.454Z,96460.94
2018-06-18T13:12:36.121Z,96463.52
2018-06-18T13:15:09.967Z,96463.34
2018-06-18T13:17:49.526Z,96471.77
2018-06-18T13:20:21.269Z,96470.84
2018-06-18T13:22:51.416Z,96466.30
2018-06-18T13:25:26.084Z,96469.88
2018-06-18T13:28:00.532Z,96462.60
2018-06-18T13:30:35.410Z,96464.47
2018-06-18T13:33:10.558Z,96360.61
2018-06-18T13:35:41.313Z,96463.25
2018-06-18T13:38:30.588Z,96463.40
2018-06-18T13:41:16.519Z,96460.58
2018-06-18T13:43:58.494Z,96455.34
2018-06-18T13:46:35.702Z,96463.55
2018-06-18T13:49:09.005Z,96460.23
2018-06-18T13:51:50.765Z,96395.28
2018-06-18T13:54:22.809Z,96458.84
2018-06-18T13:56:54.602Z,96458.33
2018-06-18T13:59:35.906Z,96455.80
2018-06-18T14:02:13.133Z,96457.87
2018-06-18T14:05:01.688Z,96455.33
2018-06-18T14:07:38.703Z,96452.66
2018-06-18T14:10:28.575Z,96450.66
2018-06-18T14:13:09.475Z,96449.34
2018-06-18T14:16:07.851Z,96456.37
2018-06-18T14:18:38.964Z,96447.47
2018-06-18T14:21:17.185Z,96443.42
2018-06-18T14:23:47.211Z,96448.66
2018-06-18T14:26:19.409Z,96449.43
2018-06-18T14:28:55.092Z,96452.09
2018-06-18T14:31:39.535Z,96451.03
2018-06-18T14:34:15.318Z,96448.25
2018-06-18T14:45:12.526Z,96371.25
2018-06-18T14:47:59.598Z,96452.42
2018-06-18T14:50:43.581Z,96450.63
2018-06-18T14:56:23.984Z,96452.79
2018-06-18T15:04:14.553Z,96450.07
2018-06-18T15:06:51.044Z,96453.20
2018-06-18T15:09:36.407Z,96450.41
2018-06-18T15:12:08.033Z,96445.14
2018-06-18T15:14:51.073Z,96432.59
2018-06-18T15:17:22.293Z,96429.88
2018-06-18T15:20:10.511Z,96422.50
2018-06-18T15:26:11.258Z,96425.53
2018-06-18T15:29:04.901Z,96426.46
2018-06-18T15:31:42.277Z,96423.41
2018-06-18T15:34:23.958Z,96424.24
2018-06-18T15:36:55.001Z,96421.28
2018-06-18T15:39:31.509Z,96429.61
2018-06-18T15:44:53.130Z,96422.20
2018-06-18T15:50:56.626Z,96416.23
2018-06-18T15:53:32.545Z,96410.30
2018-06-18T15:59:21.934Z,96418.05
2018-06-18T16:05:24.049Z,96410.28
2018-06-18T16:35:38.082Z,96440.98
2018-06-18T16:46:29.453Z,96435.92
2018-06-18T17:12:56.615Z,96453.66
2018-06-18T17:17:55.574Z,96450.66
2018-06-18T17:24:58.773Z,96455.55
2018-06-18T17:34:54.610Z,96468.98
2018-06-18T17:42:13.421Z,96474.35
2018-06-18T17:44:56.328Z,96475.03
2018-06-18T17:53:25.358Z,96492.39
2018-06-18T18:02:00.281Z,96492.03
2018-06-18T18:04:40.072Z,96500.48
2018-06-18T18:07:35.882Z,96495.32
2018-06-18T18:10:13.115Z,96500.55
2018-06-18T18:12:52.212Z,96500.08
2018-06-18T18:15:31.428Z,96509.09
2018-06-18T18:18:19.141Z,96503.08
2018-06-18T18:20:57.092Z,96502.63
2018-06-18T18:23:30.512Z,96511.98
2018-06-18T18:25:59.691Z,96516.83
2018-06-18T18:28:32.344Z,96520.59
2018-06-18T18:31:03.486Z,96515.97
2018-06-18T18:33:39.525Z,96524.78
2018-06-18T18:36:09.913Z,96521.59
2018-06-18T18:38:45.914Z,96527.25
2018-06-18T18:41:15.306Z,96519.55
2018-06-18T18:43:49.453Z,96528.41
2018-06-18T18:46:21.709Z,96534.83
2018-06-18T18:48:54.954Z,96544.02
2018-06-18T18:51:54.672Z,96551.20
2018-06-18T18:54:37.821Z,96542.73
2018-06-18T19:00:07.022Z,96557.72
2018-06-18T19:02:41.193Z,96556.80
2018-06-18T19:05:10.723Z,96557.84
2018-06-18T19:07:46.158Z,96561.75
2018-06-18T19:10:24.797Z,96568.72
2018-06-18T19:12:56.681Z,96569.79
2018-06-18T19:15:26.375Z,96572.55
2018-06-18T19:17:56.723Z,96576.29
2018-06-18T19:20:35.943Z,96581.58
2018-06-18T19:23:06.094Z,96587.63
2018-06-18T19:25:36.532Z,96590.59
2018-06-18T19:28:05.839Z,96590.12
2018-06-18T19:30:37.803Z,96593.11
2018-06-18T19:33:14.135Z,96594.59
2018-06-18T19:35:43.868Z,96599.83
2018-06-18T19:38:15.088Z,96604.74
2018-06-18T19:40:45.093Z,96610.00
2018-06-18T19:43:16.038Z,96611.14
2018-06-18T19:45:48.696Z,96606.24
2018-06-18T19:48:22.072Z,96612.63
2018-06-18T19:50:51.300Z,96618.52
2018-06-18T19:53:20.475Z,96622.59
2018-06-18T19:55:50.437Z,96622.95
2018-06-18T19:58:19.800Z,96626.55
2018-06-18T20:00:57.527Z,96627.28
2018-06-18T20:03:26.875Z,96636.59
2018-06-18T20:05:57.202Z,96634.83
2018-06-18T20:08:28.807Z,96637.27
2018-06-18T20:10:58.275Z,96643.14
2018-06-18T20:13:27.583Z,96639.56
2018-06-18T20:15:57.050Z,96641.34
2018-06-18T20:18:26.199Z,96614.20
2018-06-18T20:20:55.707Z,96654.03
2018-06-18T20:23:27.889Z,96656.78
2018-06-18T20:26:03.937Z,96649.94
2018-06-18T20:28:33.316Z,96654.64
2018-06-18T20:31:03.374Z,96658.84
2018-06-18T20:33:34.949Z,96660.95
2018-06-18T20:36:12.236Z,96664.45
2018-06-18T20:38:44.605Z,96665.42
2018-06-18T20:45:24.196Z,96665.19
2018-06-18T20:51:18.659Z,96669.64
2018-06-18T20:59:07.022Z,96677.09
2018-06-18T21:40:52.286Z,96692.97
2018-06-18T21:44:06.092Z,96689.17
2018-06-18T22:02:44.805Z,96691.88
2018-06-18T22:24:04.214Z,96679.14
2018-06-18T22:27:35.332Z,96682.91
2018-06-18T22:40:48.176Z,96681.62
2018-06-18T22:48:20.264Z,96679.70
2018-06-18T22:54:34.193Z,96685.87
2018-06-18T22:57:45.476Z,96691.08
2018-06-18T23:02:39.070Z,96693.20
2018-06-18T23:15:17.060Z,96690.01
2018-06-18T23:23:15.607Z,96685.92
2018-06-18T23:49:57.484Z,96676.30
